Time;durP1;ratioP1;P1;durP2;ratioP2;P2;SDS_P1;SDS_P2;PMS_P1;PMS_P2;Temp;Humidity;BMP_temperature;BMP_pressure;BME280_temperature;BME280_humidity;BME280_pressure;Samples;Min_cycle;Max_cycle;Signal;HPM_P1;HPM_P2
2021/04/06 00:00:55;;;;;;;2.50;1.20;;;;;;;-1.05;89.18;99998.33;112886;1209;64394;-77
2021/04/06 00:03:27;;;;;;;2.00;1.13;;;;;;;-1.06;90.19;99996.69;112982;1209;64316;-78
2021/04/06 00:06:04;;;;;;;1.90;1.03;;;;;;;-1.09;90.74;99997.72;112997;1209;65549;-76
2021/04/06 00:08:32;;;;;;;2.15;1.25;;;;;;;-1.10;91.05;100003.06;112982;1209;64413;-78
2021/04/06 00:11:02;;;;;;;3.57;1.87;;;;;;;-1.10;90.74;100003.89;113110;1209;65918;-77
2021/04/06 00:13:33;;;;;;;1.65;0.85;;;;;;;-1.10;91.68;100003.06;112986;1207;64339;-76
2021/04/06 00:16:03;;;;;;;1.40;0.90;;;;;;;-1.12;91.84;99995.37;113024;1209;64490;-76
2021/04/06 00:18:33;;;;;;;1.37;0.90;;;;;;;-1.12;90.89;99997.15;112964;1209;64342;-76
2021/04/06 00:21:02;;;;;;;3.83;1.60;;;;;;;-1.12;90.60;100002.36;113143;1209;64541;-76
2021/04/06 00:23:30;;;;;;;3.17;1.30;;;;;;;-1.12;90.47;99994.55;113041;1209;64416;-76
2021/04/06 00:25:58;;;;;;;5.65;1.00;;;;;;;-1.11;90.04;99985.78;113156;1209;64341;-76
2021/04/06 00:28:34;;;;;;;3.10;0.80;;;;;;;-1.10;89.64;99979.64;112964;1209;64352;-77
2021/04/06 00:31:03;;;;;;;4.07;1.00;;;;;;;-1.11;89.45;99989.20;112990;1209;64351;-77
2021/04/06 00:33:38;;;;;;;3.67;1.03;;;;;;;-1.11;89.41;99985.78;112979;1209;64368;-76
2021/04/06 00:36:06;;;;;;;0.90;0.40;;;;;;;-1.13;89.88;99985.89;112977;1209;64441;-77
2021/04/06 00:38:38;;;;;;;1.85;0.90;;;;;;;-1.12;89.52;99984.14;112971;1209;64348;-76
2021/04/06 00:41:11;;;;;;;1.47;0.90;;;;;;;-1.12;89.32;99982.35;113200;1209;64313;-77
2021/04/06 00:43:42;;;;;;;1.40;0.60;;;;;;;-1.08;89.68;99982.95;112984;1209;64351;-77
2021/04/06 00:46:24;;;;;;;3.93;1.57;;;;;;;-1.05;89.44;99983.53;113124;1209;64387;-77
2021/04/06 00:48:55;;;;;;;5.77;1.27;;;;;;;-0.99;88.91;99986.63;113034;1209;64358;-76
2021/04/06 00:51:21;;;;;;;8.00;1.80;;;;;;;-0.93;89.40;99984.38;113014;1207;64413;-76
2021/04/06 00:53:56;;;;;;;3.50;1.40;;;;;;;-0.90;89.07;99985.91;112991;1209;64409;-77
2021/04/06 00:56:26;;;;;;;3.27;1.20;;;;;;;-0.87;89.18;99989.11;112956;1209;64266;-76
2021/04/06 00:58:54;;;;;;;3.75;1.85;;;;;;;-0.83;88.66;99990.53;113190;1209;64384;-77
2021/04/06 01:01:43;;;;;;;5.47;1.33;;;;;;;-0.79;88.87;99987.67;113160;1209;64397;-77
2021/04/06 01:04:18;;;;;;;3.63;1.00;;;;;;;-0.75;88.68;99983.89;112960;1209;64393;-77
2021/04/06 01:06:58;;;;;;;4.83;1.40;;;;;;;-0.72;88.54;99984.48;112990;1209;64320;-77
2021/04/06 01:09:48;;;;;;;4.27;1.77;;;;;;;-0.72;88.40;99983.63;112941;1209;64314;-76
2021/04/06 01:12:17;;;;;;;3.60;1.30;;;;;;;-0.72;88.54;99983.63;113026;1209;64413;-77
2021/04/06 01:14:45;;;;;;;3.65;1.20;;;;;;;-0.73;88.28;99981.99;113207;1209;64926;-76
2021/04/06 01:17:16;;;;;;;3.45;1.70;;;;;;;-0.76;88.55;99993.48;112978;1209;65358;-78
2021/04/06 01:19:43;;;;;;;3.10;1.80;;;;;;;-0.74;88.80;99990.77;112914;1209;64505;-77
2021/04/06 01:22:12;;;;;;;5.17;2.10;;;;;;;-0.73;88.18;99998.44;112916;1209;64476;-76
2021/04/06 01:24:39;;;;;;;4.00;2.37;;;;;;;-0.70;88.27;100005.18;113009;1209;64854;-76
2021/04/06 01:27:08;;;;;;;4.97;2.33;;;;;;;-0.70;87.98;100003.42;112977;1209;64428;-76
2021/04/06 01:29:36;;;;;;;1.45;0.95;;;;;;;-0.71;88.61;100013.95;113003;1209;64401;-76
2021/04/06 01:32:03;;;;;;;2.90;1.07;;;;;;;-0.73;88.76;100015.84;113217;1209;65470;-76
2021/04/06 01:34:30;;;;;;;3.27;1.90;;;;;;;-0.75;88.96;100015.14;113035;1209;64391;-76
2021/04/06 01:36:58;;;;;;;3.10;2.40;;;;;;;-0.75;88.84;100012.53;112931;1209;64384;-78
2021/04/06 01:39:27;;;;;;;4.27;2.17;;;;;;;-0.74;88.58;100016.81;112920;1209;64390;-77
2021/04/06 01:42:04;;;;;;;4.40;2.45;;;;;;;-0.75;88.73;100009.93;113050;1209;64429;-76
2021/04/06 01:44:33;;;;;;;1.63;0.90;;;;;;;-0.78;88.96;100010.18;113021;1209;64553;-78
2021/04/06 01:47:01;;;;;;;3.30;2.20;;;;;;;-0.81;88.37;100008.62;112994;1209;64384;-77
2021/04/06 01:49:28;;;;;;;2.73;1.37;;;;;;;-0.87;88.01;100015.15;112919;1209;64489;-76
2021/04/06 01:51:57;;;;;;;3.93;1.43;;;;;;;-0.94;88.30;100015.73;113042;1209;64468;-76
2021/04/06 01:54:25;;;;;;;3.43;2.47;;;;;;;-1.03;88.43;100017.27;113129;1209;64439;-76
2021/04/06 01:57:00;;;;;;;4.23;2.20;;;;;;;-1.10;87.79;100016.08;113088;1209;64348;-76
2021/04/06 01:59:36;;;;;;;4.35;2.50;;;;;;;-1.18;87.50;100013.23;113052;1209;64313;-77
2021/04/06 02:02:03;;;;;;;4.83;2.00;;;;;;;-1.31;87.79;100021.95;112983;1209;64528;-76
2021/04/06 02:04:31;;;;;;;4.53;2.73;;;;;;;-1.39;87.60;100024.30;113027;1209;64410;-76
2021/04/06 02:07:00;;;;;;;3.90;1.85;;;;;;;-1.49;88.53;100031.13;113051;1209;64467;-77
2021/04/06 02:09:27;;;;;;;2.60;1.73;;;;;;;-1.59;88.30;100030.14;113482;1209;64365;-78
2021/04/06 02:11:54;;;;;;;3.05;1.70;;;;;;;-1.71;88.03;100037.91;112960;1209;64517;-76
2021/04/06 02:14:22;;;;;;;5.30;2.00;;;;;;;-1.81;88.93;100042.12;112975;1209;64410;-78
2021/04/06 02:17:04;;;;;;;4.07;1.50;;;;;;;-1.87;89.35;100040.81;113027;1209;64381;-76
2021/04/06 02:19:36;;;;;;;2.00;1.13;;;;;;;-1.89;89.03;100042.69;112948;1209;64349;-77
2021/04/06 02:22:10;;;;;;;2.65;0.80;;;;;;;-1.92;89.12;100039.48;113014;1209;64368;-77
2021/04/06 02:24:46;;;;;;;1.80;0.80;;;;;;;-1.97;88.85;100041.59;113221;1209;64381;-76
2021/04/06 02:27:17;;;;;;;;;;;;;;;-2.00;88.99;100036.59;113084;1217;65601;-76
2021/04/06 02:29:48;;;;;;;0.77;0.50;;;;;;;-2.08;88.60;100035.39;112954;1209;64420;-74
2021/04/06 02:32:18;;;;;;;1.20;0.70;;;;;;;-2.12;88.63;100040.92;112955;1209;64413;-76
2021/04/06 02:34:47;;;;;;;3.90;1.00;;;;;;;-2.18;89.01;100043.95;113774;1209;64375;-75
2021/04/06 02:37:27;;;;;;;4.00;1.13;;;;;;;-2.23;89.11;100044.28;113044;1209;64393;-78
2021/04/06 02:39:57;;;;;;;2.60;1.33;;;;;;;-2.26;89.48;100047.91;112991;1209;64403;-75
2021/04/06 02:42:28;;;;;;;1.53;0.60;;;;;;;-2.29;90.03;100042.94;113179;1209;64377;-75
2021/04/06 02:45:07;;;;;;;2.00;1.20;;;;;;;-2.29;90.55;100044.72;112893;1209;65332;-77
2021/04/06 02:47:38;;;;;;;2.27;1.07;;;;;;;-2.31;90.93;100043.99;112930;1209;65655;-76
2021/04/06 02:50:07;;;;;;;2.50;1.10;;;;;;;-2.30;91.04;100030.88;113105;1209;64317;-76
2021/04/06 02:52:36;;;;;;;2.00;0.87;;;;;;;-2.31;90.86;100031.00;113113;1209;64480;-76
2021/04/06 02:55:06;;;;;;;2.10;1.13;;;;;;;-2.34;90.87;100039.85;113032;1209;64461;-77
2021/04/06 02:57:39;;;;;;;1.87;1.30;;;;;;;-2.36;91.11;100041.73;112959;1209;64467;-77
2021/04/06 03:00:06;;;;;;;4.50;1.30;;;;;;;-2.37;91.95;100052.22;112980;1209;64390;-76
2021/04/06 03:02:40;;;;;;;2.10;1.00;;;;;;;-2.36;92.14;100048.66;112952;1209;64511;-77
2021/04/06 03:05:08;;;;;;;2.27;1.10;;;;;;;-2.35;91.80;100053.77;113512;1209;64339;-76
2021/04/06 03:07:48;;;;;;;1.10;0.67;;;;;;;-2.34;91.75;100044.19;113022;1209;65217;-78
2021/04/06 03:10:19;;;;;;;2.35;1.30;;;;;;;-2.33;92.15;100046.69;113099;1209;64406;-76
2021/04/06 03:12:48;;;;;;;5.53;2.00;;;;;;;-2.32;92.23;100039.72;112947;1209;64448;-77
2021/04/06 03:15:21;;;;;;;5.95;2.90;;;;;;;-2.30;92.24;100035.25;112991;1209;64477;-77
2021/04/06 03:17:54;;;;;;;3.30;1.90;;;;;;;-2.29;92.05;100036.92;112987;1209;64442;-75
2021/04/06 03:20:23;;;;;;;7.23;2.60;;;;;;;-2.29;91.97;100034.33;113023;1209;64409;-76
2021/04/06 03:22:51;;;;;;;3.63;1.37;;;;;;;-2.31;92.44;100031.00;113151;1209;64358;-76
2021/04/06 03:25:18;;;;;;;5.55;2.85;;;;;;;-2.30;91.99;100045.64;113173;1209;64606;-76
2021/04/06 03:27:47;;;;;;;5.77;3.17;;;;;;;-2.33;92.03;100043.27;112879;1209;66399;-76
2021/04/06 03:30:34;;;;;;;3.53;1.90;;;;;;;-2.31;92.44;100041.39;113040;1209;64448;-77
2021/04/06 03:33:03;;;;;;;7.67;3.33;;;;;;;-2.29;92.71;100045.54;112880;1209;65438;-77
2021/04/06 03:35:31;;;;;;;4.07;2.30;;;;;;;-2.26;92.96;100039.29;113013;1209;64753;-76
2021/04/06 03:38:00;;;;;;;4.53;1.90;;;;;;;-2.21;92.67;100038.95;112996;1209;64428;-77
2021/04/06 03:40:34;;;;;;;2.13;1.20;;;;;;;-2.17;93.07;100043.82;113013;1209;64336;-76
2021/04/06 03:43:14;;;;;;;3.75;1.20;;;;;;;-2.13;93.09;100050.46;112879;1209;64393;-76
2021/04/06 03:46:02;;;;;;;6.37;2.43;;;;;;;-2.07;93.30;100050.03;112897;1209;65598;-76
2021/04/06 03:48:34;;;;;;;4.07;1.53;;;;;;;-1.99;93.23;100038.27;113079;1209;64505;-76
2021/04/06 03:51:05;;;;;;;4.80;2.50;;;;;;;-1.92;92.93;100047.27;113017;1209;65329;-76
2021/04/06 03:53:42;;;;;;;3.90;1.60;;;;;;;-1.83;92.87;100053.58;113071;1209;64313;-76
2021/04/06 03:56:12;;;;;;;8.23;2.40;;;;;;;-1.77;92.83;100059.16;112883;1209;64490;-76
2021/04/06 03:59:01;;;;;;;6.17;2.50;;;;;;;-1.69;92.75;100053.41;112970;1209;64879;-76
2021/04/06 04:01:28;;;;;;;4.20;2.40;;;;;;;-1.60;92.31;100059.70;112941;1209;64394;-78
2021/04/06 04:03:58;;;;;;;5.30;2.00;;;;;;;-1.55;92.11;100062.78;112964;1209;64371;-78
2021/04/06 04:06:29;;;;;;;3.23;1.40;;;;;;;-1.49;92.27;100057.98;113072;1209;64320;-76
2021/04/06 04:08:56;;;;;;;4.40;2.15;;;;;;;-1.42;91.86;100063.56;113099;1209;64522;-78
2021/04/06 04:11:23;;;;;;;3.63;1.17;;;;;;;-1.36;92.06;100075.27;113000;1209;64483;-76
2021/04/06 04:13:50;;;;;;;4.70;2.40;;;;;;;-1.31;91.65;100055.78;112903;1209;64872;-76
2021/04/06 04:16:16;;;;;;;6.15;1.90;;;;;;;-1.26;91.47;100071.05;113086;1209;64420;-76
2021/04/06 04:18:43;;;;;;;3.43;1.80;;;;;;;-1.20;90.90;100067.98;112935;1209;64487;-77
2021/04/06 04:21:10;;;;;;;3.87;2.00;;;;;;;-1.16;91.02;100058.19;112932;1209;64381;-77
2021/04/06 04:23:37;;;;;;;8.17;2.30;;;;;;;-1.12;90.44;100055.23;112975;1209;64380;-77
2021/04/06 04:26:04;;;;;;;3.47;1.83;;;;;;;-1.10;90.56;100061.16;113076;1209;64449;-76
2021/04/06 04:28:31;;;;;;;3.90;1.40;;;;;;;-1.06;90.11;100057.38;112982;1209;64362;-76
2021/04/06 04:31:00;;;;;;;9.50;2.30;;;;;;;-1.03;90.18;100053.70;112969;1209;64339;-78
2021/04/06 04:33:27;;;;;;;3.35;1.40;;;;;;;-0.98;89.97;100064.59;113606;1209;65624;-76
2021/04/06 04:35:53;;;;;;;7.03;1.60;;;;;;;-0.96;89.46;100054.88;112951;1209;65629;-77
2021/04/06 04:38:20;;;;;;;3.57;1.03;;;;;;;-0.92;89.72;100048.50;112974;1209;64384;-78
2021/04/06 04:40:46;;;;;;;1.40;0.73;;;;;;;-0.92;89.60;100051.11;113068;1209;64547;-79
2021/04/06 04:43:14;;;;;;;2.87;1.10;;;;;;;-0.88;89.32;100046.50;113331;1209;64413;-78
2021/04/06 04:45:41;;;;;;;1.60;1.00;;;;;;;-0.87;89.44;100043.79;113275;1209;64544;-76
2021/04/06 04:48:07;;;;;;;6.73;1.97;;;;;;;-0.84;89.12;100048.75;112902;1209;64400;-76
2021/04/06 04:50:34;;;;;;;4.00;1.65;;;;;;;-0.79;88.98;100044.97;112986;1209;64908;-77
2021/04/06 04:53:01;;;;;;;5.10;1.50;;;;;;;-0.78;89.49;100047.45;112874;1209;64383;-77
2021/04/06 04:55:28;;;;;;;3.85;2.15;;;;;;;-0.76;89.48;100039.53;112920;1209;65658;-77
2021/04/06 04:57:55;;;;;;;0.67;0.53;;;;;;;-0.76;88.86;100042.14;113254;1208;64490;-77
2021/04/06 05:00:22;;;;;;;6.93;2.07;;;;;;;-0.72;89.45;100043.53;112904;1209;64352;-76
2021/04/06 05:02:48;;;;;;;3.03;1.93;;;;;;;-0.74;88.91;100048.89;112991;1209;65331;-78
2021/04/06 05:05:17;;;;;;;3.10;2.10;;;;;;;-0.72;88.83;100051.34;112969;1209;64320;-75
2021/04/06 05:07:45;;;;;;;5.55;1.60;;;;;;;-0.72;88.87;100048.75;113135;1209;64374;-77
2021/04/06 05:10:15;;;;;;;6.15;2.30;;;;;;;-0.69;88.74;100041.53;112973;1209;64525;-76
2021/04/06 05:12:42;;;;;;;4.17;1.93;;;;;;;-0.66;89.17;100045.67;113045;1209;64403;-77
2021/04/06 05:15:10;;;;;;;1.40;0.83;;;;;;;-0.65;88.85;100044.73;112890;1209;64432;-76
2021/04/06 05:17:36;;;;;;;3.50;1.80;;;;;;;-0.63;88.85;100042.84;112920;1209;64435;-76
2021/04/06 05:20:05;;;;;;;7.90;1.70;;;;;;;-0.63;88.79;100055.87;112887;1209;64471;-78
2021/04/06 05:22:33;;;;;;;4.80;1.20;;;;;;;-0.63;88.48;100063.68;113091;1209;64394;-77
2021/04/06 05:25:00;;;;;;;4.85;1.60;;;;;;;-0.62;89.00;100062.72;113245;1209;64750;-76
2021/04/06 05:27:26;;;;;;;6.13;2.07;;;;;;;-0.58;89.09;100064.14;112977;1209;64548;-78
2021/04/06 05:29:53;;;;;;;3.30;1.45;;;;;;;-0.58;89.11;100068.53;112982;1209;64377;-77
2021/04/06 05:32:20;;;;;;;5.03;2.23;;;;;;;-0.55;89.14;100066.53;112932;1209;64403;-76
2021/04/06 05:34:46;;;;;;;10.37;2.70;;;;;;;-0.52;89.02;100068.88;112902;1209;64333;-76
2021/04/06 05:37:13;;;;;;;7.63;2.27;;;;;;;-0.49;88.88;100065.20;112942;1209;64548;-76
2021/04/06 05:39:40;;;;;;;2.20;1.27;;;;;;;-0.44;88.90;100071.72;112938;1209;65559;-79
2021/04/06 05:42:10;;;;;;;4.45;1.85;;;;;;;-0.45;88.77;100075.30;113103;1209;64487;-77
2021/04/06 05:44:41;;;;;;;3.45;1.10;;;;;;;-0.42;88.42;100069.01;113018;1209;65595;-76
2021/04/06 05:47:15;;;;;;;4.23;1.80;;;;;;;-0.34;88.31;100078.81;115967;1209;62494;-78
2021/04/06 05:49:42;;;;;;;3.45;1.25;;;;;;;-0.28;87.92;100080.94;113519;1209;64371;-77
2021/04/06 05:52:09;;;;;;;3.90;1.50;;;;;;;-0.24;87.44;100082.36;112925;1209;64387;-75
2021/04/06 05:54:35;;;;;;;4.13;1.70;;;;;;;-0.15;87.42;100075.59;113108;1209;64365;-76
2021/04/06 05:57:03;;;;;;;3.47;1.27;;;;;;;-0.07;87.05;100078.42;113047;1209;64484;-77
2021/04/06 05:59:29;;;;;;;1.30;0.90;;;;;;;-0.01;86.20;100081.38;112949;1209;64391;-76
2021/04/06 06:01:56;;;;;;;2.60;1.37;;;;;;;0.06;85.67;100078.28;113330;1209;65391;-77
2021/04/06 06:04:23;;;;;;;4.37;1.67;;;;;;;0.14;85.97;100079.32;113089;1209;64387;-78
2021/04/06 06:06:49;;;;;;;3.80;1.30;;;;;;;0.20;85.98;100078.01;113029;1209;64397;-77
2021/04/06 06:09:43;;;;;;;2.40;1.10;;;;;;;0.19;84.62;100078.95;113035;1209;64435;-76
2021/04/06 06:12:12;;;;;;;1.87;1.20;;;;;;;0.21;85.00;100077.05;112954;1209;64512;-74
2021/04/06 06:14:44;;;;;;;1.70;0.60;;;;;;;0.26;84.53;100090.56;112996;1209;64384;-73
2021/04/06 06:17:40;;;;;;;3.57;1.33;;;;;;;0.36;84.57;100088.88;112951;1209;64381;-76
2021/04/06 06:20:15;;;;;;;0.70;0.50;;;;;;;0.44;83.66;100085.63;112866;1209;65555;-75
2021/04/06 06:22:41;;;;;;;;;;;;;;;0.47;83.76;100089.76;112892;1217;64819;-74
2021/04/06 06:25:13;;;;;;;1.17;0.70;;;;;;;0.52;83.51;100090.23;112930;1209;64406;-76
2021/04/06 06:27:44;;;;;;;2.47;1.20;;;;;;;0.56;83.85;100089.85;112979;1209;64349;-75
2021/04/06 06:30:32;;;;;;;4.07;1.07;;;;;;;0.56;83.47;100096.86;113000;1209;64339;-75
2021/04/06 06:33:27;;;;;;;0.50;0.40;;;;;;;0.49;83.74;100100.91;113022;1209;64489;-76
2021/04/06 06:36:00;;;;;;;1.60;0.90;;;;;;;0.42;83.55;100084.09;112937;1209;64512;-75
2021/04/06 06:38:30;;;;;;;2.50;1.03;;;;;;;0.40;83.00;100098.11;113112;1209;64371;-75
2021/04/06 06:41:18;;;;;;;1.63;0.60;;;;;;;0.46;83.34;100095.95;112930;1209;64403;-75
2021/04/06 06:43:48;;;;;;;1.57;0.60;;;;;;;0.46;82.82;100103.77;112912;1209;64371;-76
2021/04/06 06:46:20;;;;;;;3.25;0.70;;;;;;;0.52;83.20;100100.67;112981;1209;64381;-74
2021/04/06 06:49:04;;;;;;;4.20;1.40;;;;;;;0.58;83.00;100105.39;113025;1209;64375;-76
2021/04/06 06:51:37;;;;;;;1.87;0.70;;;;;;;0.70;82.46;100107.00;112920;1209;64479;-76
2021/04/06 06:54:05;;;;;;;3.93;1.20;;;;;;;0.85;82.56;100117.13;112959;1209;64503;-75
2021/04/06 06:56:34;;;;;;;2.50;0.93;;;;;;;0.78;82.59;100106.36;113081;1209;64860;-76
2021/04/06 06:59:02;;;;;;;2.50;1.00;;;;;;;0.79;82.17;100119.30;113181;1209;64448;-76
2021/04/06 07:01:31;;;;;;;3.20;1.50;;;;;;;0.81;82.16;100117.39;112982;1209;64346;-77
2021/04/06 07:04:02;;;;;;;8.83;1.50;;;;;;;0.87;81.60;100120.44;113036;1209;64333;-76
2021/04/06 07:06:29;;;;;;;7.25;1.60;;;;;;;0.81;81.53;100120.00;112893;1209;64410;-75
2021/04/06 07:08:56;;;;;;;5.10;1.60;;;;;;;0.94;81.62;100121.60;112917;1209;64317;-76
2021/04/06 07:11:23;;;;;;;3.05;1.10;;;;;;;0.98;80.44;100108.16;112931;1209;64483;-76
2021/04/06 07:13:54;;;;;;;3.90;1.50;;;;;;;1.03;80.36;100115.61;112976;1209;64416;-79
2021/04/06 07:16:22;;;;;;;2.80;1.27;;;;;;;1.03;79.76;100128.67;113449;1209;64528;-78
2021/04/06 07:18:50;;;;;;;4.57;1.30;;;;;;;1.09;79.28;100117.70;112963;1209;65693;-77
2021/04/06 07:21:19;;;;;;;4.00;1.20;;;;;;;1.14;78.87;100123.36;113018;1209;65629;-76
2021/04/06 07:24:00;;;;;;;3.20;1.10;;;;;;;1.21;78.58;100114.08;113005;1209;65510;-75
2021/04/06 07:26:29;;;;;;;3.00;1.00;;;;;;;1.18;78.14;100124.77;112982;1209;64416;-76
2021/04/06 07:28:57;;;;;;;5.95;1.00;;;;;;;1.33;78.68;100111.38;112962;1209;64745;-77
2021/04/06 07:31:24;;;;;;;2.60;0.80;;;;;;;1.45;77.68;100110.34;113485;1209;64355;-77
2021/04/06 07:33:52;;;;;;;4.97;1.37;;;;;;;1.49;78.27;100110.89;112919;1209;65604;-76
2021/04/06 07:36:22;;;;;;;4.05;1.10;;;;;;;1.61;78.10;100104.63;114170;1209;64371;-78
2021/04/06 07:38:51;;;;;;;5.60;1.25;;;;;;;1.88;76.84;100111.88;113095;1209;64384;-77
2021/04/06 07:41:20;;;;;;;4.50;1.30;;;;;;;2.02;76.54;100110.69;112990;1209;64528;-77
2021/04/06 07:43:47;;;;;;;4.83;1.27;;;;;;;2.00;76.11;100100.35;112931;1209;64448;-75
2021/04/06 07:46:32;;;;;;;5.10;1.50;;;;;;;1.94;76.29;100105.30;112993;1209;64371;-77
2021/04/06 07:49:02;;;;;;;3.40;1.30;;;;;;;1.97;75.82;100113.69;113094;1209;64480;-77
2021/04/06 07:51:31;;;;;;;4.77;1.10;;;;;;;2.07;75.47;100118.13;113572;1209;64490;-77
2021/04/06 07:54:15;;;;;;;4.27;1.27;;;;;;;1.99;75.05;100110.94;113086;1209;64483;-77
2021/04/06 07:57:18;;;;;;;5.37;1.27;;;;;;;2.22;74.39;100093.23;113107;1209;64380;-74
2021/04/06 07:59:51;;;;;;;3.60;1.15;;;;;;;2.16;75.11;100109.47;112681;1212;64403;-76
2021/04/06 08:02:23;;;;;;;2.70;1.07;;;;;;;2.10;75.39;100105.59;112864;1209;64480;-75
2021/04/06 08:04:55;;;;;;;4.90;1.47;;;;;;;1.93;74.21;100111.47;112974;1209;64346;-75
2021/04/06 08:07:36;;;;;;;7.30;1.30;;;;;;;1.99;74.90;100109.14;113363;1209;64521;-74
2021/04/06 08:10:22;;;;;;;6.43;1.30;;;;;;;2.11;75.77;100106.44;113100;1209;64384;-73
2021/04/06 08:12:49;;;;;;;5.07;1.40;;;;;;;2.09;74.54;100110.98;113028;1209;64387;-73
2021/04/06 08:15:21;;;;;;;4.75;1.75;;;;;;;1.99;74.31;100108.33;113015;1209;64904;-75
2021/04/06 08:17:51;;;;;;;4.90;1.20;;;;;;;2.07;73.81;100094.59;112803;1209;64395;-75
2021/04/06 08:20:31;;;;;;;3.75;1.70;;;;;;;2.17;73.49;100111.14;113014;1209;64476;-75
2021/04/06 08:23:03;;;;;;;5.97;1.07;;;;;;;2.29;74.17;100103.98;113308;1209;64458;-77
2021/04/06 08:25:30;;;;;;;8.95;1.60;;;;;;;2.39;73.61;100103.02;113152;1209;64505;-78
2021/04/06 08:28:02;;;;;;;2.03;1.10;;;;;;;2.54;72.69;100103.44;113000;1209;64556;-76
2021/04/06 08:30:36;;;;;;;7.80;1.60;;;;;;;2.62;72.45;100094.91;113205;1209;64370;-75
2021/04/06 08:33:10;;;;;;;4.43;1.37;;;;;;;2.67;72.33;100097.92;113167;1209;64362;-76
2021/04/06 08:35:52;;;;;;;5.43;1.18;;;;;;;2.64;70.48;100104.27;113067;1209;64416;-75
2021/04/06 08:38:28;;;;;;;5.50;1.50;;;;;;;2.65;71.25;100099.86;112956;1209;65595;-75
2021/04/06 08:40:57;;;;;;;5.27;1.30;;;;;;;2.55;71.81;100112.12;113020;1209;64362;-75
2021/04/06 08:43:34;;;;;;;3.63;1.03;;;;;;;2.51;71.17;100123.83;115030;1209;64311;-75
2021/04/06 08:46:08;;;;;;;4.90;1.40;;;;;;;2.55;70.42;100106.88;116016;1209;62261;-76
2021/04/06 08:48:50;;;;;;;7.47;1.63;;;;;;;2.60;70.26;100125.64;116029;1209;62215;-76
2021/04/06 08:51:25;;;;;;;3.83;1.53;;;;;;;2.68;69.70;100123.17;114018;1209;64400;-76
2021/04/06 08:54:19;;;;;;;1.40;0.80;;;;;;;2.82;69.36;100112.25;112932;1209;64387;-74
2021/04/06 08:56:47;;;;;;;4.57;1.50;;;;;;;2.74;69.30;100124.38;112852;1209;64396;-75
2021/04/06 08:59:32;;;;;;;3.87;1.47;;;;;;;2.68;69.22;100123.17;112873;1209;64477;-74
2021/04/06 09:02:08;;;;;;;6.83;1.67;;;;;;;2.92;70.26;100132.39;113030;1209;64608;-75
2021/04/06 09:04:40;;;;;;;10.35;1.70;;;;;;;3.11;68.60;100128.92;112899;1209;64387;-75
2021/04/06 09:07:16;;;;;;;5.90;1.20;;;;;;;3.08;67.72;100131.80;112869;1209;64387;-75
2021/04/06 09:09:43;;;;;;;3.77;1.10;;;;;;;3.05;66.83;100117.20;112932;1209;65442;-76
2021/04/06 09:12:12;;;;;;;6.00;1.47;;;;;;;3.12;67.34;100101.73;113054;1209;64484;-75
2021/04/06 09:14:39;;;;;;;10.67;1.83;;;;;;;3.23;66.98;100109.42;113039;1209;65630;-74
2021/04/06 09:17:06;;;;;;;11.90;2.70;;;;;;;3.31;68.40;100116.59;112922;1209;64870;-76
2021/04/06 09:19:37;;;;;;;3.67;1.93;;;;;;;3.34;68.38;100100.59;113002;1209;64391;-75
2021/04/06 09:22:14;;;;;;;6.93;1.40;;;;;;;3.37;67.52;100095.87;112798;1209;64377;-76
2021/04/06 09:24:44;;;;;;;4.60;1.50;;;;;;;3.41;65.18;100106.91;112927;1209;64442;-76
2021/04/06 09:27:11;;;;;;;4.00;1.30;;;;;;;3.30;65.57;100097.42;112924;1209;64429;-76
2021/04/06 09:29:40;;;;;;;10.93;1.80;;;;;;;3.13;64.94;100093.73;112882;1209;64473;-75
2021/04/06 09:32:13;;;;;;;4.83;1.53;;;;;;;2.97;65.78;100104.78;112911;1209;64471;-76
2021/04/06 09:34:43;;;;;;;6.37;1.60;;;;;;;3.04;65.51;100097.22;112915;1209;64390;-76
2021/04/06 09:37:35;;;;;;;3.53;1.30;;;;;;;3.13;64.45;100088.50;112878;1209;65728;-75
2021/04/06 09:40:02;;;;;;;3.00;0.90;;;;;;;3.14;64.52;100084.08;112897;1209;65621;-76
2021/04/06 09:42:29;;;;;;;5.20;1.60;;;;;;;3.15;63.29;100146.84;112907;1209;64384;-76
2021/04/06 09:44:55;;;;;;;7.43;1.90;;;;;;;3.30;62.98;100078.25;112969;1209;64435;-75
2021/04/06 09:47:23;;;;;;;5.95;1.40;;;;;;;3.73;64.17;100092.56;112923;1209;64378;-78
2021/04/06 09:49:52;;;;;;;6.50;1.33;;;;;;;3.83;62.53;100090.72;112865;1209;64352;-77
2021/04/06 09:52:28;;;;;;;5.63;1.27;;;;;;;3.64;60.79;100086.39;112961;1209;64359;-77
2021/04/06 09:55:07;;;;;;;8.60;1.47;;;;;;;3.48;60.26;100107.97;112992;1209;64365;-77
2021/04/06 09:57:40;;;;;;;5.57;1.60;;;;;;;3.70;60.18;100064.83;112927;1209;64383;-75
2021/04/06 10:00:16;;;;;;;5.55;1.15;;;;;;;3.99;60.17;100063.83;112975;1209;64358;-77
2021/04/06 10:02:44;;;;;;;4.17;1.33;;;;;;;4.20;59.14;100071.42;113060;1209;64495;-76
2021/04/06 10:05:23;;;;;;;5.15;1.50;;;;;;;4.26;59.94;100060.33;113000;1209;64409;-76
2021/04/06 10:07:54;;;;;;;5.50;1.40;;;;;;;4.20;58.12;100066.17;112898;1209;65636;-75
2021/04/06 10:10:26;;;;;;;3.80;1.30;;;;;;;3.91;60.20;100072.45;112939;1209;64387;-76
2021/04/06 10:12:55;;;;;;;3.40;1.13;;;;;;;3.80;62.82;100085.75;113390;1209;64406;-76
2021/04/06 10:15:28;;;;;;;6.87;1.40;;;;;;;3.70;63.64;100087.59;112985;1209;64441;-76
2021/04/06 10:17:55;;;;;;;6.75;1.15;;;;;;;3.55;62.37;100066.27;113022;1209;65329;-75
2021/04/06 10:20:37;;;;;;;10.23;2.00;;;;;;;3.33;63.09;100078.77;112912;1209;64346;-75
2021/04/06 10:23:03;;;;;;;3.77;1.03;;;;;;;3.43;64.50;100058.59;112969;1209;64384;-76
2021/04/06 10:25:50;;;;;;;7.43;1.30;;;;;;;3.49;63.91;100051.95;112925;1209;64403;-77
2021/04/06 10:28:26;;;;;;;8.27;1.97;;;;;;;3.62;63.20;100056.86;112982;1209;64554;-76
2021/04/06 10:31:00;;;;;;;6.35;1.20;;;;;;;3.86;63.91;100049.25;112940;1209;64422;-75
2021/04/06 10:33:38;;;;;;;5.40;1.30;;;;;;;4.03;61.03;100031.88;112908;1209;64458;-76
2021/04/06 10:36:18;;;;;;;7.77;1.40;;;;;;;4.29;62.22;100049.52;113008;1209;64404;-76
2021/04/06 10:38:45;;;;;;;4.97;1.37;;;;;;;4.79;60.77;100025.30;112940;1209;64387;-74
2021/04/06 10:41:15;;;;;;;5.15;1.75;;;;;;;5.00;58.38;100018.88;112905;1209;65480;-74
2021/04/06 10:43:48;;;;;;;4.73;2.07;;;;;;;4.85;57.68;100016.81;113116;1209;64844;-74
2021/04/06 10:46:22;;;;;;;9.90;1.35;;;;;;;4.66;58.70;100017.01;112875;1209;64471;-75
2021/04/06 10:48:59;;;;;;;;;;;;;;;4.29;59.01;100007.51;112948;1217;64444;-76
2021/04/06 10:51:26;;;;;;;6.57;1.70;;;;;;;4.03;60.55;100033.69;112907;1209;65511;-75
2021/04/06 10:53:58;;;;;;;6.00;1.10;;;;;;;4.18;61.01;100021.69;112899;1209;64519;-75
2021/04/06 10:56:31;;;;;;;4.60;1.20;;;;;;;4.47;61.79;99989.94;112922;1209;64407;-75
2021/04/06 10:59:03;;;;;;;5.00;1.23;;;;;;;4.60;58.93;100020.25;112939;1209;64384;-76
2021/04/06 11:01:48;;;;;;;5.70;1.40;;;;;;;4.67;56.89;99995.00;112996;1209;64378;-76
2021/04/06 11:04:27;;;;;;;5.87;1.97;;;;;;;4.98;55.84;99991.92;113007;1209;65328;-75
2021/04/06 11:06:58;;;;;;;7.33;1.20;;;;;;;5.14;55.07;99984.09;112997;1209;65672;-74
2021/04/06 11:09:33;;;;;;;3.43;0.90;;;;;;;5.29;56.17;99986.95;112952;1209;64262;-75
2021/04/06 11:12:01;;;;;;;3.33;1.23;;;;;;;5.16;51.48;99995.28;113041;1209;64461;-73
2021/04/06 11:14:30;;;;;;;2.70;0.93;;;;;;;5.02;52.07;99988.00;112977;1209;64358;-76
2021/04/06 11:17:00;;;;;;;3.83;1.00;;;;;;;5.07;51.60;100004.94;112972;1209;64378;-76
2021/04/06 11:19:29;;;;;;;5.13;1.40;;;;;;;5.34;53.27;99986.51;113116;1209;64509;-74
2021/04/06 11:21:59;;;;;;;2.65;0.75;;;;;;;5.47;49.62;99986.88;112948;1209;64415;-76
2021/04/06 11:24:28;;;;;;;3.67;1.07;;;;;;;5.53;49.16;99980.98;112959;1209;64499;-73
2021/04/06 11:26:56;;;;;;;7.03;1.63;;;;;;;5.63;52.38;100007.98;113026;1209;64474;-75
2021/04/06 11:29:25;;;;;;;2.77;0.73;;;;;;;5.58;53.58;100004.17;113107;1209;64495;-79
2021/04/06 11:31:56;;;;;;;5.43;0.93;;;;;;;5.41;53.29;99992.77;113375;1209;64474;-80
2021/04/06 11:34:23;;;;;;;3.03;1.27;;;;;;;5.31;54.06;99985.84;113481;1209;64445;-80
2021/04/06 11:36:50;;;;;;;3.07;0.70;;;;;;;5.26;54.68;99979.40;113239;1209;64320;-80
2021/04/06 11:39:20;;;;;;;3.85;1.35;;;;;;;5.22;54.22;99968.36;113276;1209;64413;-79
2021/04/06 11:41:50;;;;;;;3.50;0.97;;;;;;;5.18;52.07;99985.44;113393;1209;64483;-81